Katowice International Airport Katowice PL
ICAO: EPKT
IATA: KTW
Category: Large
Scheduled Services: Yes

Elevation: 995 ft
TransAlt. 6500 ft.

Airport Communications:
APP:121.075
HANDLING:131.45
TWR:129.25

EPKT Zoom In..

Runways:

(A) RW 09 length 9186 ft width 197 ft
---- / hdg 86

(B) RW 27 length 9186 ft width 197 ft
ILS 109.90 / hdg 266

Location; EPKT
Day. 05 / Time. 15.30 Zulu
* QNH: 1013
* Temperature: 27° c. 80.6°f.
* Wind from: EPK° Speed T kn.
Dewpoint: 15° c.
Visibility: 10 km or more,
No clouds below 1,500 m.
No cumulonimbus, and no significant weather
fenomena in the aerodrome or its vicinity.

EPKT 051530Z 22012KT CAVOK 27/15 Q1013

Going to: --> -->


Wind From EPK°
Speed T kn.

 
 
jpsmedia worldairports.se 2020   terms of use